Live from Altenrhein
LIVE
LSZR 280920Z 09006KT 9999 BKN037 03/03 Q1002 NOSIG RMK E

People´s C-Office:

T: +41 (0)71 858 51 65

E: c-office@peoples.ch

Webcam Airport St. Gallen-Altenrhein

Live images LSZR.

 

Live from Altenrhein
LIVE
LSZR 280920Z 09006KT 9999 BKN037 03/03 Q1002 NOSIG RMK E
Time-laps today
2017-02-28 00:14:52
LSZR 272250Z AUTO 18021G40KT 130V250 CAVOK 13/M04 Q1000
Time-laps yesterday
2017-02-27 00:14:54
LSZR 262250Z AUTO VRB01KT CAVOK 00/M00 Q1016
Time-laps 3 days ago
2017-02-25 00:14:57
LSZR 242250Z AUTO VRB02KT 9999 BKN029 SCT060 03/03 Q1020